Time;durP1;ratioP1;P1;durP2;ratioP2;P2;SDS_P1;SDS_P2;PMS_P1;PMS_P2;Temp;Humidity;BMP_temperature;BMP_pressure;BME280_temperature;BME280_humidity;BME280_pressure;Samples;Min_cycle;Max_cycle;Signal;HPM_P1;HPM_P2
2022/11/02 00:02:04;;;;;;;9.10;1.67;;;12.60;99.90;;;;;;5115648;28;20043;-68
2022/11/02 00:04:29;;;;;;;9.48;1.52;;;12.60;99.90;;;;;;5115338;28;20053;-68
2022/11/02 00:06:54;;;;;;;12.48;1.63;;;12.60;99.90;;;;;;5113943;28;20042;-68
2022/11/02 00:09:20;;;;;;;6.15;1.58;;;12.50;99.90;;;;;;5115180;28;20046;-68
2022/11/02 00:11:46;;;;;;;6.70;1.30;;;12.50;99.90;;;;;;5113926;28;20047;-68
2022/11/02 00:14:11;;;;;;;7.75;1.50;;;12.50;99.90;;;;;;5115145;28;20034;-68
2022/11/02 00:16:39;;;;;;;10.63;2.08;;;12.50;99.90;;;;;;5113830;28;20053;-68
2022/11/02 00:19:06;;;;;;;10.15;1.77;;;12.40;99.90;;;;;;5114032;28;20048;-68
2022/11/02 00:21:32;;;;;;;6.78;1.42;;;12.40;99.90;;;;;;5113640;28;20044;-68
2022/11/02 00:23:59;;;;;;;9.38;2.20;;;12.40;99.90;;;;;;5113955;28;20035;-68
2022/11/02 00:26:26;;;;;;;7.85;1.52;;;12.50;99.90;;;;;;5096783;28;20488;-68
2022/11/02 00:28:52;;;;;;;8.00;1.60;;;12.40;99.90;;;;;;5113479;28;20481;-68
2022/11/02 00:31:18;;;;;;;10.48;1.95;;;12.50;99.90;;;;;;5113450;28;20067;-68
2022/11/02 00:33:43;;;;;;;5.20;1.40;;;12.40;99.90;;;;;;5112745;28;20074;-68
2022/11/02 00:36:09;;;;;;;10.25;1.50;;;12.40;99.90;;;;;;5114607;28;20036;-68
2022/11/02 00:38:35;;;;;;;5.95;1.38;;;12.50;99.90;;;;;;5113399;28;20039;-68
2022/11/02 00:41:00;;;;;;;7.07;1.45;;;12.50;99.90;;;;;;5113210;28;20122;-68
2022/11/02 00:43:26;;;;;;;5.97;1.42;;;12.40;99.90;;;;;;5113640;28;20043;-68
2022/11/02 00:45:51;;;;;;;9.15;1.50;;;12.40;99.90;;;;;;5113287;28;20483;-68
2022/11/02 00:48:17;;;;;;;8.45;1.20;;;12.40;99.90;;;;;;5113203;28;20071;-68
2022/11/02 00:50:42;;;;;;;6.65;1.30;;;12.40;99.90;;;;;;5113074;28;20047;-68
2022/11/02 00:53:08;;;;;;;5.60;1.38;;;12.40;99.90;;;;;;5113178;28;20036;-68
2022/11/02 00:55:33;;;;;;;4.57;0.90;;;12.30;99.90;;;;;;5113116;28;20031;-67
2022/11/02 00:57:59;;;;;;;5.20;1.20;;;12.20;99.90;;;;;;5114321;28;20123;-67
2022/11/02 01:00:24;;;;;;;4.95;0.70;;;12.10;99.90;;;;;;5113230;28;20177;-68
2022/11/02 01:02:50;;;;;;;5.75;0.63;;;12.00;99.90;;;;;;5112937;28;20047;-68
2022/11/02 01:05:15;;;;;;;5.10;0.80;;;12.00;99.90;;;;;;5112873;28;20051;-67
2022/11/02 01:07:41;;;;;;;5.22;0.90;;;11.80;99.90;;;;;;5112830;28;20042;-67
2022/11/02 01:10:08;;;;;;;2.80;0.55;;;11.80;99.90;;;;;;5114305;28;20040;-68
2022/11/02 01:12:36;;;;;;;6.60;0.77;;;11.80;99.90;;;;;;5113029;28;20396;-68
2022/11/02 01:15:02;;;;;;;6.25;0.77;;;11.70;99.90;;;;;;5112762;28;20071;-68
2022/11/02 01:17:28;;;;;;;3.80;0.90;;;11.70;99.90;;;;;;5112679;28;20074;-67
2022/11/02 01:19:54;;;;;;;3.63;0.80;;;11.70;99.90;;;;;;5112613;28;20044;-68
2022/11/02 01:22:19;;;;;;;3.63;0.60;;;11.70;99.90;;;;;;5112889;28;20047;-68
2022/11/02 01:24:45;;;;;;;6.35;1.10;;;11.70;99.90;;;;;;5112591;28;20431;-68
2022/11/02 01:27:10;;;;;;;5.50;0.85;;;11.70;99.90;;;;;;5112482;28;20115;-68
2022/11/02 01:29:36;;;;;;;8.02;1.35;;;11.70;99.90;;;;;;5113865;28;20031;-68
2022/11/02 01:32:01;;;;;;;4.50;1.38;;;11.70;99.90;;;;;;5112479;28;20040;-68
2022/11/02 01:34:27;;;;;;;7.80;1.92;;;11.70;99.90;;;;;;5112480;28;20118;-68
2022/11/02 01:36:52;;;;;;;8.18;1.80;;;11.70;99.90;;;;;;5112429;28;20051;-68
2022/11/02 01:39:18;;;;;;;12.30;2.20;;;11.70;99.90;;;;;;5112323;28;20035;-68
2022/11/02 01:41:43;;;;;;;9.00;1.85;;;11.80;99.90;;;;;;5113614;28;20032;-68
2022/11/02 01:44:30;;;;;;;8.95;1.80;;;11.80;99.90;;;;;;5114311;28;20472;-68
2022/11/02 01:47:16;;;;;;;15.38;2.53;;;11.80;99.90;;;;;;5112466;28;20123;-68
2022/11/02 01:49:46;;;;;;;10.30;2.05;;;11.80;99.90;;;;;;5112257;28;20484;-68
2022/11/02 01:52:23;;;;;;;12.10;2.30;;;11.80;99.90;;;;;;5112279;28;20067;-68
2022/11/02 01:54:57;;;;;;;11.32;2.15;;;11.80;99.90;;;;;;5112539;28;20035;-68
2022/11/02 01:57:26;;;;;;;14.07;2.08;;;11.80;99.90;;;;;;5112468;28;20508;-68
2022/11/02 02:00:18;;;;;;;13.27;2.25;;;11.80;99.90;;;;;;5112295;28;20050;-68
2022/11/02 02:03:05;;;;;;;12.80;2.50;;;11.80;99.90;;;;;;5108357;28;20051;-68
2022/11/02 02:05:33;;;;;;;6.28;1.92;;;11.80;99.90;;;;;;5112385;28;20040;-68
2022/11/02 02:08:01;;;;;;;10.93;2.35;;;11.80;99.90;;;;;;5112031;28;20504;-68
2022/11/02 02:10:27;;;;;;;12.77;2.75;;;11.80;99.90;;;;;;5112027;28;20492;-68
2022/11/02 02:12:52;;;;;;;13.68;2.22;;;11.80;99.90;;;;;;5112313;28;20054;-68
2022/11/02 02:15:22;;;;;;;13.82;2.60;;;11.90;99.90;;;;;;5112274;28;20415;-68
2022/11/02 02:18:02;;;;;;;12.90;2.53;;;11.90;99.90;;;;;;5112282;28;20036;-68
2022/11/02 02:20:43;;;;;;;13.40;2.70;;;11.90;99.90;;;;;;5113234;28;20031;-68
2022/11/02 02:23:33;;;;;;;12.13;2.00;;;11.90;99.90;;;;;;5111964;28;20040;-68
2022/11/02 02:26:16;;;;;;;11.80;2.58;;;11.90;99.90;;;;;;5112208;28;20488;-68
2022/11/02 02:29:04;;;;;;;12.00;2.17;;;11.90;99.90;;;;;;5094870;28;20040;-68
2022/11/02 02:31:36;;;;;;;10.30;2.08;;;11.90;99.90;;;;;;5112107;28;20094;-68
2022/11/02 02:34:22;;;;;;;13.80;2.40;;;11.90;99.90;;;;;;5113394;28;20040;-68
2022/11/02 02:37:06;;;;;;;10.05;1.98;;;11.90;99.90;;;;;;5112119;28;20039;-68
2022/11/02 02:39:40;;;;;;;9.75;1.67;;;11.90;99.90;;;;;;5111809;28;20048;-68
2022/11/02 02:42:14;;;;;;;7.65;1.70;;;11.90;99.90;;;;;;5111645;28;20114;-68
2022/11/02 02:44:44;;;;;;;5.75;1.92;;;11.80;99.90;;;;;;5112060;28;20403;-68
2022/11/02 02:47:12;;;;;;;8.75;1.60;;;11.80;99.90;;;;;;5111686;28;20044;-68
2022/11/02 02:49:43;;;;;;;8.00;2.08;;;11.80;99.90;;;;;;5111647;28;20039;-68
2022/11/02 02:52:11;;;;;;;6.07;1.10;;;11.80;99.90;;;;;;5112054;28;20082;-68
2022/11/02 02:54:41;;;;;;;6.25;0.95;;;11.80;99.90;;;;;;5111970;28;20203;-68
2022/11/02 02:57:11;;;;;;;5.25;1.20;;;11.80;99.90;;;;;;5112821;28;20048;-68
2022/11/02 02:59:42;;;;;;;6.82;0.90;;;11.70;99.90;;;;;;5098405;28;20480;-68
2022/11/02 03:02:20;;;;;;;6.28;1.05;;;11.70;99.90;;;;;;5115561;28;20412;-68
2022/11/02 03:04:46;;;;;;;8.60;1.15;;;11.60;99.90;;;;;;5115585;28;20069;-68
2022/11/02 03:07:17;;;;;;;5.30;1.25;;;11.60;99.90;;;;;;5115159;28;20047;-68
2022/11/02 03:09:49;;;;;;;7.95;1.13;;;11.50;99.90;;;;;;5115384;28;20039;-68
2022/11/02 03:12:21;;;;;;;5.38;1.08;;;11.50;99.90;;;;;;5115151;28;20047;-68
2022/11/02 03:15:12;;;;;;;5.88;1.20;;;11.40;99.90;;;;;;5115106;28;20492;-68
2022/11/02 03:17:44;;;;;;;6.55;1.20;;;11.40;99.90;;;;;;5116296;28;20051;-68
2022/11/02 03:20:37;;;;;;;7.05;1.20;;;11.30;99.90;;;;;;5116007;28;20035;-68
2022/11/02 03:23:35;;;;;;;6.18;1.00;;;11.30;99.90;;;;;;5115165;28;20047;-68
2022/11/02 03:26:09;;;;;;;6.32;1.10;;;11.30;99.90;;;;;;5101372;28;20083;-67
2022/11/02 03:28:51;;;;;;;6.20;1.20;;;11.20;99.90;;;;;;5115147;28;20047;-67
2022/11/02 03:31:47;;;;;;;8.32;1.38;;;11.20;99.90;;;;;;5114987;28;20119;-67
2022/11/02 03:34:25;;;;;;;9.02;1.20;;;11.20;99.90;;;;;;5114782;28;20054;-67
2022/11/02 03:36:59;;;;;;;7.35;1.45;;;11.20;99.90;;;;;;5114713;28;20157;-67
2022/11/02 03:39:33;;;;;;;7.05;1.30;;;11.10;99.90;;;;;;5116084;28;20036;-68
2022/11/02 03:42:02;;;;;;;6.55;0.90;;;11.10;99.90;;;;;;5114728;28;20047;-68
2022/11/02 03:44:29;;;;;;;7.97;0.85;;;11.10;99.90;;;;;;5114792;28;20104;-68
2022/11/02 03:46:58;;;;;;;12.95;1.70;;;11.10;99.90;;;;;;5114343;28;20032;-68
2022/11/02 03:49:27;;;;;;;8.63;1.15;;;11.10;99.90;;;;;;5114324;28;20055;-68
2022/11/02 03:51:57;;;;;;;9.27;1.25;;;11.00;99.90;;;;;;5114349;28;20043;-68
2022/11/02 03:54:53;;;;;;;6.10;1.35;;;11.00;99.90;;;;;;5114603;28;20066;-68
2022/11/02 03:57:24;;;;;;;9.95;1.70;;;11.00;99.90;;;;;;5114289;28;20500;-68
2022/11/02 03:59:49;;;;;;;7.15;1.23;;;11.00;99.90;;;;;;5114174;28;20092;-68
2022/11/02 04:02:17;;;;;;;5.00;0.90;;;11.00;99.90;;;;;;5114169;28;20130;-68
2022/11/02 04:04:51;;;;;;;8.52;1.50;;;11.00;99.90;;;;;;5114104;28;20039;-68
2022/11/02 04:07:26;;;;;;;10.82;1.73;;;11.00;99.90;;;;;;5113881;28;20556;-68
2022/11/02 04:09:51;;;;;;;10.82;2.20;;;11.00;99.90;;;;;;5113966;28;20118;-68
2022/11/02 04:15:01;;;;;;;8.07;1.35;;;11.00;99.90;;;;;;5114160;28;20051;-68
2022/11/02 04:20:11;;;;;;;7.32;1.52;;;11.00;99.90;;;;;;5113803;28;20064;-68
2022/11/02 04:25:21;;;;;;;7.75;1.45;;;11.00;99.90;;;;;;5113792;28;20123;-68
2022/11/02 04:27:49;;;;;;;10.88;1.85;;;11.00;99.90;;;;;;5113779;28;20115;-68
2022/11/02 04:30:21;;;;;;;9.68;1.70;;;11.00;99.90;;;;;;5096587;28;20483;-68
2022/11/02 04:35:34;;;;;;;6.80;1.40;;;11.00;99.90;;;;;;5113527;28;20044;-68
2022/11/02 04:40:45;;;;;;;8.55;1.23;;;11.00;99.90;;;;;;5113504;28;20087;-68
2022/11/02 04:43:11;;;;;;;11.63;1.50;;;11.00;99.90;;;;;;5113444;28;20444;-68
2022/11/02 04:45:37;;;;;;;8.48;1.63;;;11.00;99.90;;;;;;5114570;28;20039;-68
2022/11/02 04:48:07;;;;;;;7.95;2.03;;;11.00;99.90;;;;;;5113199;28;20036;-68
2022/11/02 04:50:33;;;;;;;8.45;1.95;;;11.00;99.90;;;;;;5113170;28;20457;-68
2022/11/02 04:53:00;;;;;;;10.57;1.45;;;11.10;99.90;;;;;;5113154;28;20040;-68
2022/11/02 04:55:27;;;;;;;10.15;1.92;;;11.10;99.90;;;;;;5113398;28;20063;-68
2022/11/02 04:57:52;;;;;;;9.07;1.90;;;11.10;99.90;;;;;;5113102;28;20047;-68
2022/11/02 05:00:19;;;;;;;8.07;1.80;;;11.10;99.90;;;;;;5113018;28;20126;-68
2022/11/02 05:02:48;;;;;;;8.18;1.20;;;11.10;99.90;;;;;;5113217;28;20066;-68
2022/11/02 05:05:15;;;;;;;5.63;1.30;;;11.00;99.90;;;;;;5112924;28;20054;-68
2022/11/02 05:07:41;;;;;;;9.48;1.90;;;11.10;99.90;;;;;;5113032;28;20039;-68
2022/11/02 05:10:07;;;;;;;7.65;1.67;;;11.00;99.90;;;;;;5113030;28;20099;-68
2022/11/02 05:12:33;;;;;;;7.70;1.80;;;11.00;99.90;;;;;;5112818;28;20042;-68
2022/11/02 05:14:59;;;;;;;10.75;1.58;;;11.00;99.90;;;;;;5112791;28;20043;-68
2022/11/02 05:17:24;;;;;;;7.93;1.83;;;11.00;99.90;;;;;;5112754;28;20050;-67
2022/11/02 05:19:50;;;;;;;10.95;1.98;;;11.00;99.90;;;;;;5112293;28;20126;-67
2022/11/02 05:22:15;;;;;;;10.93;1.60;;;11.00;99.90;;;;;;5112917;28;20128;-67
2022/11/02 05:24:41;;;;;;;13.20;2.85;;;11.00;99.90;;;;;;5112612;28;20115;-67
2022/11/02 05:27:08;;;;;;;14.43;2.75;;;11.00;99.90;;;;;;5112789;28;20054;-67
2022/11/02 05:29:34;;;;;;;15.70;2.55;;;11.00;99.90;;;;;;5112450;28;20043;-68
2022/11/02 05:32:00;;;;;;;15.48;2.60;;;11.00;99.90;;;;;;5112502;28;20046;-67
2022/11/02 05:34:25;;;;;;;10.57;1.73;;;11.00;99.90;;;;;;5112454;28;20062;-67
2022/11/02 05:36:51;;;;;;;14.25;1.92;;;11.10;99.90;;;;;;5113269;28;20039;-67
2022/11/02 05:39:17;;;;;;;13.40;2.13;;;11.10;99.90;;;;;;5112336;28;20081;-67
2022/11/02 05:41:42;;;;;;;9.07;2.00;;;11.10;99.90;;;;;;5112209;28;20051;-67
2022/11/02 05:44:08;;;;;;;10.73;2.08;;;11.10;99.90;;;;;;5112290;28;20043;-68
2022/11/02 05:46:33;;;;;;;11.32;2.53;;;11.20;99.90;;;;;;5112289;28;20072;-68
2022/11/02 05:48:59;;;;;;;9.60;2.05;;;11.10;99.90;;;;;;5112180;28;20043;-68
2022/11/02 05:51:24;;;;;;;10.20;2.00;;;11.10;99.90;;;;;;5113492;28;20039;-67
2022/11/02 05:53:50;;;;;;;11.02;1.80;;;11.10;99.90;;;;;;5112516;28;20043;-68
2022/11/02 05:56:15;;;;;;;14.23;2.03;;;11.10;99.90;;;;;;5112221;28;20454;-68
2022/11/02 05:58:41;;;;;;;12.15;2.38;;;11.10;99.90;;;;;;5113730;28;20553;-68
2022/11/02 06:01:08;;;;;;;13.23;2.33;;;11.00;99.90;;;;;;5112403;28;20043;-68
2022/11/02 06:03:33;;;;;;;11.75;2.70;;;11.00;99.90;;;;;;5112157;28;20044;-68
2022/11/02 06:06:02;;;;;;;13.85;2.50;;;11.00;99.90;;;;;;5112158;28;20069;-68
2022/11/02 06:08:31;;;;;;;14.98;2.47;;;11.00;99.90;;;;;;5112057;28;20048;-68
2022/11/02 06:10:56;;;;;;;12.60;2.47;;;11.00;99.90;;;;;;5113267;28;20039;-67
2022/11/02 06:13:22;;;;;;;13.07;2.78;;;11.00;99.90;;;;;;5112034;28;20119;-67
2022/11/02 06:15:47;;;;;;;11.68;2.83;;;11.00;99.90;;;;;;5112063;28;20085;-67
2022/11/02 06:18:13;;;;;;;15.98;2.70;;;11.00;99.90;;;;;;5113572;28;20075;-67
2022/11/02 06:20:38;;;;;;;12.68;2.25;;;10.90;99.90;;;;;;5111950;28;20031;-68
2022/11/02 06:23:04;;;;;;;12.35;2.40;;;10.90;99.90;;;;;;5112028;28;20055;-67
2022/11/02 06:25:29;;;;;;;18.50;3.22;;;10.90;99.90;;;;;;5113184;28;20044;-68
2022/11/02 06:27:56;;;;;;;10.75;2.28;;;10.90;99.90;;;;;;5112033;28;20124;-68
2022/11/02 06:30:25;;;;;;;19.38;3.05;;;10.90;99.90;;;;;;5111918;28;20118;-68
2022/11/02 06:32:52;;;;;;;14.45;3.05;;;10.90;99.90;;;;;;5114315;28;20123;-68
2022/11/02 06:35:19;;;;;;;11.27;2.42;;;10.90;99.90;;;;;;5116084;28;20134;-67
2022/11/02 06:37:45;;;;;;;12.35;2.00;;;10.90;99.90;;;;;;5116070;28;20050;-68
2022/11/02 06:40:12;;;;;;;14.18;2.45;;;10.90;99.90;;;;;;5116043;28;20039;-68
2022/11/02 06:42:39;;;;;;;16.20;2.55;;;10.90;99.90;;;;;;5115912;28;20047;-68
2022/11/02 06:45:05;;;;;;;15.02;2.75;;;10.90;99.90;;;;;;5115717;28;20051;-68
2022/11/02 06:47:32;;;;;;;12.98;2.63;;;10.90;99.90;;;;;;5115752;28;20039;-68
2022/11/02 06:49:59;;;;;;;12.27;2.53;;;10.90;99.90;;;;;;5116924;28;20032;-68
2022/11/02 06:52:25;;;;;;;14.35;2.72;;;11.00;99.90;;;;;;5115882;28;20045;-68
2022/11/02 06:54:51;;;;;;;14.80;2.40;;;11.00;99.90;;;;;;5115817;28;20039;-67
2022/11/02 06:57:16;;;;;;;15.30;2.80;;;11.00;99.90;;;;;;5117036;28;20046;-67
2022/11/02 06:59:42;;;;;;;12.45;2.65;;;11.10;99.90;;;;;;5115415;28;20050;-67
2022/11/02 07:02:08;;;;;;;17.63;2.70;;;11.00;99.90;;;;;;5115381;28;20046;-67
2022/11/02 07:04:33;;;;;;;13.07;2.50;;;11.00;99.90;;;;;;5115350;28;20071;-67
2022/11/02 07:06:59;;;;;;;16.58;2.72;;;11.10;99.90;;;;;;5115275;28;20082;-67
2022/11/02 07:09:24;;;;;;;18.50;3.33;;;11.20;99.90;;;;;;5115212;28;20032;-68
2022/11/02 07:11:50;;;;;;;14.13;2.60;;;11.20;99.90;;;;;;5115478;28;20039;-68
2022/11/02 07:14:15;;;;;;;17.58;2.85;;;11.10;99.90;;;;;;5115196;28;20039;-68
2022/11/02 07:16:41;;;;;;;21.92;2.95;;;11.20;99.90;;;;;;5116630;28;20110;-68
2022/11/02 07:19:06;;;;;;;17.00;2.63;;;11.20;99.90;;;;;;5115335;28;20536;-68
2022/11/02 07:21:32;;;;;;;20.17;2.95;;;11.10;99.90;;;;;;5115383;28;20492;-68
2022/11/02 07:23:58;;;;;;;19.10;4.28;;;11.20;99.90;;;;;;5115376;28;20419;-68
2022/11/02 07:26:25;;;;;;;14.23;2.22;;;11.20;99.90;;;;;;5115040;28;20576;-68
2022/11/02 07:28:50;;;;;;;16.45;2.65;;;11.10;99.90;;;;;;5114796;28;20044;-68
2022/11/02 07:31:16;;;;;;;15.25;2.10;;;11.20;99.90;;;;;;5114772;28;20080;-68
2022/11/02 07:33:41;;;;;;;13.32;2.22;;;11.10;99.90;;;;;;5114803;28;20233;-68
2022/11/02 07:36:07;;;;;;;11.98;2.22;;;11.20;99.90;;;;;;5114755;28;20115;-68
2022/11/02 07:38:33;;;;;;;14.52;2.40;;;11.10;99.90;;;;;;5114685;28;20056;-68
2022/11/02 07:40:58;;;;;;;13.85;2.40;;;11.10;99.90;;;;;;5114519;28;20039;-68
2022/11/02 07:43:24;;;;;;;14.48;2.83;;;11.10;99.90;;;;;;5114353;28;20126;-67
2022/11/02 07:45:49;;;;;;;11.55;2.13;;;11.10;99.90;;;;;;5114809;28;20054;-68
2022/11/02 07:48:15;;;;;;;10.02;1.95;;;11.10;99.90;;;;;;5114475;28;20065;-68
2022/11/02 07:50:40;;;;;;;12.93;2.50;;;11.10;99.90;;;;;;5115673;28;20035;-68
2022/11/02 07:53:06;;;;;;;12.10;2.00;;;11.20;99.90;;;;;;5114432;28;20043;-68
2022/11/02 07:55:31;;;;;;;13.88;2.22;;;11.20;99.90;;;;;;5114385;28;20038;-68
2022/11/02 07:58:03;;;;;;;10.55;1.60;;;11.30;99.90;;;;;;5114285;28;20043;-69
2022/11/02 08:00:36;;;;;;;14.10;1.92;;;11.30;99.90;;;;;;5114209;28;20075;-68
2022/11/02 08:03:02;;;;;;;;;;;11.30;99.90;;;;;;5115569;28;20365;-68
2022/11/02 08:05:29;;;;;;;11.35;2.22;;;11.30;99.90;;;;;;5114161;28;20380;-68
2022/11/02 08:08:06;;;;;;;13.93;2.50;;;11.30;99.90;;;;;;5114015;28;20449;-68
2022/11/02 08:10:33;;;;;;;10.60;2.05;;;11.40;99.90;;;;;;5114096;28;20506;-68
2022/11/02 08:12:58;;;;;;;10.35;1.88;;;11.40;99.90;;;;;;5115280;28;20035;-68
2022/11/02 08:15:24;;;;;;;15.00;3.10;;;11.40;99.90;;;;;;5113987;28;20093;-68
2022/11/02 08:18:22;;;;;;;15.10;2.60;;;11.40;99.90;;;;;;5114244;28;20051;-68
2022/11/02 08:20:48;;;;;;;14.95;2.30;;;11.40;99.90;;;;;;5095280;28;20055;-68
2022/11/02 08:23:16;;;;;;;15.65;3.17;;;11.50;99.90;;;;;;5113906;28;20039;-68
2022/11/02 08:25:44;;;;;;;11.18;2.20;;;11.50;99.90;;;;;;5113788;28;20039;-68
2022/11/02 08:28:12;;;;;;;12.13;2.10;;;11.50;99.90;;;;;;5113682;28;20044;-68
2022/11/02 08:30:38;;;;;;;11.38;2.17;;;11.50;99.90;;;;;;5113638;28;20040;-68
2022/11/02 08:33:14;;;;;;;9.20;1.50;;;11.50;99.90;;;;;;5113650;28;20198;-68
2022/11/02 08:35:41;;;;;;;6.05;1.40;;;11.60;99.90;;;;;;5113972;28;20082;-68
2022/11/02 08:38:07;;;;;;;9.60;1.50;;;11.60;99.90;;;;;;5113797;28;20103;-68
2022/11/02 08:40:34;;;;;;;7.25;1.52;;;11.60;99.90;;;;;;5113508;28;20052;-68
2022/11/02 08:43:01;;;;;;;9.55;1.70;;;11.70;99.90;;;;;;5113461;28;20050;-68
2022/11/02 08:45:28;;;;;;;9.10;1.55;;;11.90;99.90;;;;;;5113370;28;20503;-68
2022/11/02 08:47:54;;;;;;;10.82;1.17;;;11.90;99.90;;;;;;5113277;28;20054;-68
2022/11/02 08:50:22;;;;;;;10.80;1.35;;;12.00;99.90;;;;;;5113605;28;20046;-68
2022/11/02 08:52:48;;;;;;;7.20;1.02;;;12.10;99.90;;;;;;5113242;28;20097;-68
2022/11/02 08:55:14;;;;;;;11.75;1.77;;;12.10;99.90;;;;;;5112362;28;20040;-68
2022/11/02 08:57:50;;;;;;;6.43;1.38;;;12.20;99.90;;;;;;5113419;28;20043;-68
2022/11/02 09:00:18;;;;;;;7.32;1.33;;;12.20;99.90;;;;;;5113041;28;20097;-68
2022/11/02 09:02:56;;;;;;;10.43;1.73;;;12.20;99.90;;;;;;5114129;28;20051;-68
2022/11/02 09:05:21;;;;;;;9.43;1.50;;;12.20;99.90;;;;;;5113083;28;20118;-68
2022/11/02 09:07:47;;;;;;;11.25;1.38;;;12.20;99.90;;;;;;5112921;28;20123;-68
2022/11/02 09:10:13;;;;;;;11.60;1.70;;;12.20;99.90;;;;;;5112901;28;20118;-68
2022/11/02 09:12:38;;;;;;;8.98;1.75;;;12.30;99.90;;;;;;5112947;28;20118;-71
2022/11/02 09:15:04;;;;;;;9.35;1.63;;;12.30;99.90;;;;;;5112857;28;20039;-69
2022/11/02 09:17:29;;;;;;;10.32;1.65;;;12.30;99.90;;;;;;5112804;28;20043;-68
2022/11/02 09:19:55;;;;;;;5.80;1.13;;;12.30;99.90;;;;;;5112716;28;20044;-68
2022/11/02 09:22:20;;;;;;;11.00;1.30;;;12.30;99.90;;;;;;5112748;28;20046;-68
2022/11/02 09:24:46;;;;;;;6.75;1.15;;;12.30;99.90;;;;;;5112720;28;20044;-68
2022/11/02 09:27:11;;;;;;;11.30;1.60;;;12.30;99.90;;;;;;5112966;28;20043;-68
2022/11/02 09:29:37;;;;;;;9.88;1.63;;;12.40;99.90;;;;;;5112836;28;20373;-68
2022/11/02 09:32:03;;;;;;;6.93;1.75;;;12.40;99.90;;;;;;5112913;28;20510;-68
2022/11/02 09:34:28;;;;;;;9.77;1.20;;;12.40;99.90;;;;;;5112523;28;20475;-68
2022/11/02 09:36:54;;;;;;;8.45;1.42;;;12.40;99.90;;;;;;5112508;28;20131;-68
2022/11/02 09:39:22;;;;;;;10.13;1.50;;;12.50;99.90;;;;;;5112422;28;20067;-68
2022/11/02 09:42:05;;;;;;;9.43;1.55;;;12.50;99.90;;;;;;5112357;28;20105;-68
2022/11/02 09:44:49;;;;;;;9.57;1.40;;;12.60;99.90;;;;;;5112501;28;20039;-68
2022/11/02 09:47:15;;;;;;;10.88;2.03;;;12.60;99.90;;;;;;5112349;28;20047;-68
2022/11/02 09:49:43;;;;;;;9.82;1.50;;;12.60;99.90;;;;;;5112674;28;20119;-68
2022/11/02 09:52:25;;;;;;;7.90;1.35;;;12.70;99.90;;;;;;5112720;28;20096;-68
2022/11/02 09:54:53;;;;;;;10.93;1.85;;;12.70;99.90;;;;;;5112389;28;20039;-68
2022/11/02 09:57:29;;;;;;;13.35;1.98;;;12.80;99.90;;;;;;5112359;28;20047;-68
2022/11/02 09:59:55;;;;;;;9.38;1.40;;;12.80;99.90;;;;;;5112551;28;20039;-68
2022/11/02 10:02:30;;;;;;;11.07;1.60;;;12.80;99.90;;;;;;5112329;28;20036;-68
2022/11/02 10:05:17;;;;;;;7.03;1.85;;;12.90;99.90;;;;;;5112512;28;20054;-68
2022/11/02 10:08:07;;;;;;;12.93;2.05;;;13.00;99.90;;;;;;5116277;28;20522;-69
2022/11/02 10:10:51;;;;;;;11.43;1.65;;;13.00;99.90;;;;;;5116420;28;20050;-68
2022/11/02 10:13:41;;;;;;;9.75;2.00;;;13.00;99.90;;;;;;5116366;28;20116;-68
2022/11/02 10:16:26;;;;;;;11.80;1.67;;;13.10;99.90;;;;;;5099365;28;20042;-68
2022/11/02 10:18:53;;;;;;;13.35;1.85;;;13.10;99.90;;;;;;5115660;28;20051;-68
2022/11/02 10:21:22;;;;;;;14.30;1.70;;;13.20;99.90;;;;;;5116385;28;20047;-68
2022/11/02 10:23:53;;;;;;;13.10;2.20;;;13.30;99.90;;;;;;5116152;28;20052;-68
2022/11/02 10:26:32;;;;;;;9.85;1.90;;;13.40;99.90;;;;;;5099139;28;20514;-68
2022/11/02 10:29:05;;;;;;;13.40;2.30;;;13.40;99.90;;;;;;5116156;28;20149;-68
2022/11/02 10:31:33;;;;;;;10.85;2.17;;;13.50;99.90;;;;;;5115975;28;20044;-68
2022/11/02 10:34:16;;;;;;;14.95;1.95;;;13.50;99.90;;;;;;5115982;28;20043;-68
2022/11/02 10:36:48;;;;;;;;;;;13.60;99.90;;;;;;5116407;28;20039;-68
2022/11/02 10:39:31;;;;;;;12.85;1.77;;;13.60;99.90;;;;;;5116069;28;19923;-68
2022/11/02 10:42:03;;;;;;;9.45;2.00;;;13.80;99.90;;;;;;5115742;28;20048;-68
2022/11/02 10:44:45;;;;;;;12.07;1.63;;;13.80;99.90;;;;;;5115731;28;20453;-68
2022/11/02 10:47:15;;;;;;;9.70;1.73;;;13.80;99.90;;;;;;5115704;28;20051;-68
2022/11/02 10:50:10;;;;;;;9.65;1.95;;;13.90;99.90;;;;;;5115681;28;20035;-68
2022/11/02 10:52:38;;;;;;;10.18;1.92;;;14.00;99.90;;;;;;5098816;28;20039;-68
2022/11/02 10:55:12;;;;;;;14.23;2.15;;;13.90;99.90;;;;;;5115571;28;20411;-68
2022/11/02 10:57:38;;;;;;;14.05;2.30;;;14.20;99.90;;;;;;5098584;28;20039;-68
2022/11/02 11:00:27;;;;;;;12.23;1.85;;;15.10;99.90;;;;;;5098422;28;20046;-68
2022/11/02 11:03:14;;;;;;;8.43;1.33;;;16.00;98.50;;;;;;5115483;28;20073;-68
2022/11/02 11:05:49;;;;;;;8.93;1.92;;;16.00;97.30;;;;;;5115728;28;20122;-68
2022/11/02 11:08:42;;;;;;;8.13;1.92;;;15.60;97.30;;;;;;5115309;28;20075;-68
2022/11/02 11:11:37;;;;;;;11.02;2.22;;;15.80;97.40;;;;;;5111475;28;20134;-68
2022/11/02 11:14:16;;;;;;;10.48;2.10;;;17.30;95.70;;;;;;5115215;28;20048;-68
2022/11/02 11:16:52;;;;;;;9.32;1.50;;;19.00;92.20;;;;;;5115181;28;20043;-68
2022/11/02 11:19:31;;;;;;;10.60;1.50;;;20.10;85.50;;;;;;5115863;28;20035;-68
2022/11/02 11:21:57;;;;;;;7.88;1.58;;;20.90;79.80;;;;;;5115101;28;20039;-68
2022/11/02 11:24:26;;;;;;;8.25;1.70;;;21.00;77.40;;;;;;5115279;28;20096;-72
2022/11/02 11:27:10;;;;;;;7.20;1.30;;;21.30;74.00;;;;;;5114975;28;20050;-68
2022/11/02 11:29:38;;;;;;;9.65;1.60;;;21.50;70.20;;;;;;5114923;28;20392;-68
2022/11/02 11:32:11;;;;;;;8.63;1.35;;;21.40;72.20;;;;;;5114817;28;20031;-68
2022/11/02 11:34:37;;;;;;;10.50;1.60;;;21.90;70.10;;;;;;5115092;28;20392;-68
2022/11/02 11:37:07;;;;;;;8.02;1.52;;;22.40;67.70;;;;;;5117848;28;20481;-70
2022/11/02 11:39:33;;;;;;;12.48;2.10;;;23.10;65.40;;;;;;5116043;28;20103;-69
2022/11/02 11:42:01;;;;;;;6.47;1.23;;;23.70;64.50;;;;;;5116436;28;20058;-69
2022/11/02 11:44:26;;;;;;;6.53;1.27;;;24.10;62.30;;;;;;5116898;28;20122;-69
2022/11/02 11:46:56;;;;;;;7.30;1.42;;;24.30;60.60;;;;;;5117369;28;20507;-69
2022/11/02 11:49:30;;;;;;;8.13;1.58;;;24.70;60.00;;;;;;5116695;28;20051;-69
2022/11/02 11:51:57;;;;;;;10.40;1.50;;;25.20;57.90;;;;;;5116719;28;20043;-69
2022/11/02 11:54:29;;;;;;;7.40;1.20;;;25.50;56.30;;;;;;5117735;28;20050;-69
2022/11/02 11:56:57;;;;;;;9.60;1.33;;;25.50;54.70;;;;;;5116257;28;20048;-69
2022/11/02 11:59:28;;;;;;;10.73;1.85;;;25.00;55.10;;;;;;5115724;28;20043;-69
2022/11/02 12:01:59;;;;;;;7.85;1.73;;;24.00;56.20;;;;;;5114992;28;20044;-70
2022/11/02 12:04:33;;;;;;;7.95;1.65;;;23.50;57.90;;;;;;5114966;28;20085;-69
2022/11/02 12:07:10;;;;;;;7.88;1.40;;;23.60;57.80;;;;;;5114919;28;20121;-69
2022/11/02 12:09:58;;;;;;;10.10;1.42;;;24.10;56.40;;;;;;5115383;28;20140;-69
2022/11/02 12:12:37;;;;;;;9.68;1.70;;;24.50;55.50;;;;;;5115179;28;20048;-69
2022/11/02 12:15:03;;;;;;;9.70;1.65;;;24.80;52.10;;;;;;5115540;28;20043;-69
2022/11/02 12:17:42;;;;;;;8.68;2.13;;;24.30;54.70;;;;;;5115465;28;20104;-69
2022/11/02 12:20:35;;;;;;;7.28;1.40;;;24.00;54.20;;;;;;5115236;28;20043;-69
2022/11/02 12:23:07;;;;;;;;;;;24.10;53.30;;;;;;5116138;28;20078;-69
2022/11/02 12:26:08;;;;;;;10.02;1.75;;;23.60;52.70;;;;;;5116369;28;19987;-69
2022/11/02 12:28:46;;;;;;;12.25;1.90;;;24.00;54.30;;;;;;5114440;28;20051;-70
2022/11/02 12:31:36;;;;;;;8.13;1.70;;;24.40;53.80;;;;;;5115642;28;20108;-70
2022/11/02 12:34:16;;;;;;;12.77;1.90;;;23.80;54.20;;;;;;5117140;28;20096;-69
2022/11/02 12:37:03;;;;;;;8.82;1.80;;;23.90;54.50;;;;;;5117326;28;20039;-70
2022/11/02 12:39:54;;;;;;;8.43;1.50;;;22.70;54.80;;;;;;5117264;28;20048;-69
2022/11/02 12:42:27;;;;;;;8.27;1.45;;;21.50;57.60;;;;;;5069692;28;20055;-69
2022/11/02 12:45:08;;;;;;;7.93;1.40;;;20.20;60.50;;;;;;5116702;28;20046;-69
2022/11/02 12:47:51;;;;;;;9.70;1.42;;;19.10;62.80;;;;;;5116929;28;20048;-69
2022/11/02 12:50:24;;;;;;;10.50;1.52;;;19.10;65.10;;;;;;5116575;28;20043;-69
2022/11/02 12:53:14;;;;;;;9.85;1.92;;;18.90;64.70;;;;;;5116432;28;20092;-69
2022/11/02 12:55:49;;;;;;;9.75;1.65;;;18.60;65.50;;;;;;5116620;28;20044;-69
2022/11/02 12:58:28;;;;;;;10.05;1.80;;;18.90;65.50;;;;;;5116211;28;20546;-69
2022/11/02 13:01:00;;;;;;;12.93;2.22;;;19.00;65.40;;;;;;5118104;28;20065;-69
2022/11/02 13:03:47;;;;;;;9.32;1.63;;;20.10;65.10;;;;;;5116325;28;20084;-69
2022/11/02 13:06:17;;;;;;;11.00;1.60;;;21.30;63.10;;;;;;5116386;28;20407;-69
2022/11/02 13:09:01;;;;;;;8.98;1.83;;;22.10;60.80;;;;;;5115702;28;20130;-69
2022/11/02 13:11:38;;;;;;;10.10;2.05;;;22.30;58.90;;;;;;5116280;28;20062;-69
2022/11/02 13:14:11;;;;;;;10.73;2.25;;;22.50;58.40;;;;;;5115469;28;20039;-70
2022/11/02 13:16:43;;;;;;;10.20;1.85;;;22.80;57.80;;;;;;5117464;28;20051;-70